sensor_id;sensor_type;location;lat;lon;timestamp;temperature;humidity
13198;DHT22;6664;52.514;13.440;2023-04-10T00:00:32;5.60;56.50
13198;DHT22;6664;52.514;13.440;2023-04-10T00:03:17;5.50;56.80
13198;DHT22;6664;52.514;13.440;2023-04-10T00:06:04;5.50;56.70
13198;DHT22;6664;52.514;13.440;2023-04-10T00:08:50;5.40;57.10
13198;DHT22;6664;52.514;13.440;2023-04-10T00:11:36;5.40;56.70
13198;DHT22;6664;52.514;13.440;2023-04-10T00:14:21;5.30;56.50
13198;DHT22;6664;52.514;13.440;2023-04-10T00:17:09;5.20;56.70
13198;DHT22;6664;52.514;13.440;2023-04-10T00:19:54;5.20;57.20
13198;DHT22;6664;52.514;13.440;2023-04-10T00:22:40;5.10;57.60
13198;DHT22;6664;52.514;13.440;2023-04-10T00:25:27;5.10;57.60
13198;DHT22;6664;52.514;13.440;2023-04-10T00:28:12;5.10;57.90
13198;DHT22;6664;52.514;13.440;2023-04-10T00:30:58;5.00;58.20
13198;DHT22;6664;52.514;13.440;2023-04-10T00:33:43;5.00;58.50
13198;DHT22;6664;52.514;13.440;2023-04-10T00:36:29;5.00;58.60
13198;DHT22;6664;52.514;13.440;2023-04-10T00:39:15;4.90;58.90
13198;DHT22;6664;52.514;13.440;2023-04-10T00:42:01;4.90;59.30
13198;DHT22;6664;52.514;13.440;2023-04-10T00:44:47;4.90;59.70
13198;DHT22;6664;52.514;13.440;2023-04-10T00:47:32;4.80;59.30
13198;DHT22;6664;52.514;13.440;2023-04-10T00:50:21;4.90;60.00
13198;DHT22;6664;52.514;13.440;2023-04-10T00:53:06;4.80;60.00
13198;DHT22;6664;52.514;13.440;2023-04-10T00:55:53;4.80;60.10
13198;DHT22;6664;52.514;13.440;2023-04-10T00:58:39;4.80;60.30
13198;DHT22;6664;52.514;13.440;2023-04-10T01:01:26;4.70;60.40
13198;DHT22;6664;52.514;13.440;2023-04-10T01:04:13;4.70;60.70
13198;DHT22;6664;52.514;13.440;2023-04-10T01:07:27;4.70;61.10
13198;DHT22;6664;52.514;13.440;2023-04-10T01:10:45;4.70;61.70
13198;DHT22;6664;52.514;13.440;2023-04-10T01:13:54;4.80;62.20
13198;DHT22;6664;52.514;13.440;2023-04-10T01:16:50;4.70;62.00
13198;DHT22;6664;52.514;13.440;2023-04-10T01:26:22;4.70;61.40
13198;DHT22;6664;52.514;13.440;2023-04-10T01:29:09;4.70;61.70
13198;DHT22;6664;52.514;13.440;2023-04-10T01:34:49;4.60;61.50
13198;DHT22;6664;52.514;13.440;2023-04-10T01:37:41;4.60;61.70
13198;DHT22;6664;52.514;13.440;2023-04-10T01:40:28;4.50;61.30
13198;DHT22;6664;52.514;13.440;2023-04-10T01:43:18;4.50;61.80
13198;DHT22;6664;52.514;13.440;2023-04-10T01:46:07;4.50;61.90
13198;DHT22;6664;52.514;13.440;2023-04-10T01:48:54;4.60;62.80
13198;DHT22;6664;52.514;13.440;2023-04-10T01:51:41;4.50;62.50
13198;DHT22;6664;52.514;13.440;2023-04-10T01:54:29;4.50;62.70
13198;DHT22;6664;52.514;13.440;2023-04-10T01:57:16;4.50;63.10
13198;DHT22;6664;52.514;13.440;2023-04-10T02:00:02;4.50;63.20
13198;DHT22;6664;52.514;13.440;2023-04-10T02:02:48;4.40;63.00
13198;DHT22;6664;52.514;13.440;2023-04-10T02:05:44;4.40;63.00
13198;DHT22;6664;52.514;13.440;2023-04-10T02:08:34;4.30;62.70
13198;DHT22;6664;52.514;13.440;2023-04-10T02:11:33;4.20;63.10
13198;DHT22;6664;52.514;13.440;2023-04-10T02:14:21;4.30;63.60
13198;DHT22;6664;52.514;13.440;2023-04-10T02:17:08;4.20;63.20
13198;DHT22;6664;52.514;13.440;2023-04-10T02:19:55;4.20;63.80
13198;DHT22;6664;52.514;13.440;2023-04-10T02:22:42;4.20;64.50
13198;DHT22;6664;52.514;13.440;2023-04-10T02:25:36;4.20;64.60
13198;DHT22;6664;52.514;13.440;2023-04-10T02:28:22;4.20;65.10
13198;DHT22;6664;52.514;13.440;2023-04-10T02:31:07;4.10;64.30
13198;DHT22;6664;52.514;13.440;2023-04-10T02:33:53;4.00;64.70
13198;DHT22;6664;52.514;13.440;2023-04-10T02:36:39;4.00;65.30
13198;DHT22;6664;52.514;13.440;2023-04-10T02:39:25;4.00;65.30
13198;DHT22;6664;52.514;13.440;2023-04-10T02:42:10;4.00;65.80
13198;DHT22;6664;52.514;13.440;2023-04-10T02:44:56;4.00;66.90
13198;DHT22;6664;52.514;13.440;2023-04-10T02:47:41;4.10;67.70
13198;DHT22;6664;52.514;13.440;2023-04-10T02:50:27;4.00;66.90
13198;DHT22;6664;52.514;13.440;2023-04-10T02:53:15;4.00;67.80
13198;DHT22;6664;52.514;13.440;2023-04-10T02:56:01;4.00;68.00
13198;DHT22;6664;52.514;13.440;2023-04-10T02:58:46;4.00;68.10
13198;DHT22;6664;52.514;13.440;2023-04-10T03:01:32;4.00;68.10
13198;DHT22;6664;52.514;13.440;2023-04-10T03:04:20;4.00;68.30
13198;DHT22;6664;52.514;13.440;2023-04-10T03:07:05;4.00;68.70
13198;DHT22;6664;52.514;13.440;2023-04-10T03:09:51;3.90;68.70
13198;DHT22;6664;52.514;13.440;2023-04-10T03:12:37;4.00;70.20
13198;DHT22;6664;52.514;13.440;2023-04-10T03:15:25;4.00;69.90
13198;DHT22;6664;52.514;13.440;2023-04-10T03:18:10;4.00;70.10
13198;DHT22;6664;52.514;13.440;2023-04-10T03:20:55;4.00;70.00
13198;DHT22;6664;52.514;13.440;2023-04-10T03:23:44;3.80;69.00
13198;DHT22;6664;52.514;13.440;2023-04-10T03:26:31;3.80;69.60
13198;DHT22;6664;52.514;13.440;2023-04-10T03:29:19;3.80;69.90
13198;DHT22;6664;52.514;13.440;2023-04-10T03:32:04;3.90;71.20
13198;DHT22;6664;52.514;13.440;2023-04-10T03:34:50;3.90;71.20
13198;DHT22;6664;52.514;13.440;2023-04-10T03:37:36;3.90;71.20
13198;DHT22;6664;52.514;13.440;2023-04-10T03:40:23;3.90;72.10
13198;DHT22;6664;52.514;13.440;2023-04-10T03:43:09;3.90;72.30
13198;DHT22;6664;52.514;13.440;2023-04-10T03:45:56;3.90;72.10
13198;DHT22;6664;52.514;13.440;2023-04-10T03:48:42;3.90;73.00
13198;DHT22;6664;52.514;13.440;2023-04-10T03:51:30;3.80;72.70
13198;DHT22;6664;52.514;13.440;2023-04-10T03:54:18;3.80;72.50
13198;DHT22;6664;52.514;13.440;2023-04-10T03:57:07;3.80;73.00
13198;DHT22;6664;52.514;13.440;2023-04-10T03:59:55;3.80;73.10
13198;DHT22;6664;52.514;13.440;2023-04-10T04:02:41;3.90;73.80
13198;DHT22;6664;52.514;13.440;2023-04-10T04:05:30;3.80;73.40
13198;DHT22;6664;52.514;13.440;2023-04-10T04:08:16;3.80;74.10
13198;DHT22;6664;52.514;13.440;2023-04-10T04:11:01;3.80;74.00
13198;DHT22;6664;52.514;13.440;2023-04-10T04:13:47;3.80;74.30
13198;DHT22;6664;52.514;13.440;2023-04-10T04:16:32;3.70;74.30
13198;DHT22;6664;52.514;13.440;2023-04-10T04:19:18;3.80;74.80
13198;DHT22;6664;52.514;13.440;2023-04-10T04:22:05;3.80;75.10
13198;DHT22;6664;52.514;13.440;2023-04-10T04:24:51;3.80;75.00
13198;DHT22;6664;52.514;13.440;2023-04-10T04:27:39;3.80;76.00
13198;DHT22;6664;52.514;13.440;2023-04-10T04:30:25;3.80;75.60
13198;DHT22;6664;52.514;13.440;2023-04-10T04:33:11;3.80;75.60
13198;DHT22;6664;52.514;13.440;2023-04-10T04:35:56;3.80;75.50
13198;DHT22;6664;52.514;13.440;2023-04-10T04:38:42;3.80;75.90
13198;DHT22;6664;52.514;13.440;2023-04-10T04:41:28;3.90;76.00
13198;DHT22;6664;52.514;13.440;2023-04-10T04:44:17;4.00;76.60
13198;DHT22;6664;52.514;13.440;2023-04-10T04:47:03;4.00;76.70
13198;DHT22;6664;52.514;13.440;2023-04-10T04:49:49;4.00;77.30
13198;DHT22;6664;52.514;13.440;2023-04-10T04:52:35;4.10;77.00
13198;DHT22;6664;52.514;13.440;2023-04-10T04:55:20;4.20;77.30
13198;DHT22;6664;52.514;13.440;2023-04-10T04:58:08;4.20;77.90
13198;DHT22;6664;52.514;13.440;2023-04-10T05:00:54;4.30;78.00
13198;DHT22;6664;52.514;13.440;2023-04-10T05:03:39;4.40;78.50
13198;DHT22;6664;52.514;13.440;2023-04-10T05:06:27;4.50;78.00
13198;DHT22;6664;52.514;13.440;2023-04-10T05:09:12;4.60;78.10
13198;DHT22;6664;52.514;13.440;2023-04-10T05:11:58;4.70;78.00
13198;DHT22;6664;52.514;13.440;2023-04-10T05:14:45;4.70;77.60
13198;DHT22;6664;52.514;13.440;2023-04-10T05:17:30;4.80;77.60
13198;DHT22;6664;52.514;13.440;2023-04-10T05:20:18;4.90;77.40
13198;DHT22;6664;52.514;13.440;2023-04-10T05:23:03;5.00;77.00
13198;DHT22;6664;52.514;13.440;2023-04-10T05:25:49;5.10;76.80
13198;DHT22;6664;52.514;13.440;2023-04-10T05:28:35;5.20;76.30
13198;DHT22;6664;52.514;13.440;2023-04-10T05:31:20;5.30;75.60
13198;DHT22;6664;52.514;13.440;2023-04-10T05:34:08;5.40;74.50
13198;DHT22;6664;52.514;13.440;2023-04-10T05:36:55;5.60;73.40
13198;DHT22;6664;52.514;13.440;2023-04-10T05:39:43;5.80;72.10
13198;DHT22;6664;52.514;13.440;2023-04-10T05:42:29;5.90;69.80
13198;DHT22;6664;52.514;13.440;2023-04-10T05:45:14;6.10;67.80
13198;DHT22;6664;52.514;13.440;2023-04-10T05:48:00;6.20;65.20
13198;DHT22;6664;52.514;13.440;2023-04-10T05:50:46;6.40;63.00
13198;DHT22;6664;52.514;13.440;2023-04-10T05:53:31;6.60;60.10
13198;DHT22;6664;52.514;13.440;2023-04-10T05:56:17;6.80;58.80
13198;DHT22;6664;52.514;13.440;2023-04-10T05:59:02;6.90;56.30
13198;DHT22;6664;52.514;13.440;2023-04-10T06:01:48;7.10;54.40
13198;DHT22;6664;52.514;13.440;2023-04-10T06:04:34;7.20;51.80
13198;DHT22;6664;52.514;13.440;2023-04-10T06:07:22;7.30;49.80
13198;DHT22;6664;52.514;13.440;2023-04-10T06:10:11;7.40;48.20
13198;DHT22;6664;52.514;13.440;2023-04-10T06:12:57;7.50;47.60
13198;DHT22;6664;52.514;13.440;2023-04-10T06:15:42;7.60;46.80
13198;DHT22;6664;52.514;13.440;2023-04-10T06:18:28;7.70;45.60
13198;DHT22;6664;52.514;13.440;2023-04-10T06:21:13;7.80;44.90
13198;DHT22;6664;52.514;13.440;2023-04-10T06:23:59;7.90;44.30
13198;DHT22;6664;52.514;13.440;2023-04-10T06:26:46;7.90;43.50
13198;DHT22;6664;52.514;13.440;2023-04-10T06:29:32;8.00;42.80
13198;DHT22;6664;52.514;13.440;2023-04-10T06:32:17;8.10;42.30
13198;DHT22;6664;52.514;13.440;2023-04-10T06:35:03;8.20;41.00
13198;DHT22;6664;52.514;13.440;2023-04-10T06:37:49;8.30;40.80
13198;DHT22;6664;52.514;13.440;2023-04-10T06:40:35;8.30;41.00
13198;DHT22;6664;52.514;13.440;2023-04-10T06:43:20;8.20;39.80
13198;DHT22;6664;52.514;13.440;2023-04-10T06:46:06;8.30;39.50
13198;DHT22;6664;52.514;13.440;2023-04-10T06:48:52;8.20;39.30
13198;DHT22;6664;52.514;13.440;2023-04-10T06:51:38;8.20;39.10
13198;DHT22;6664;52.514;13.440;2023-04-10T06:54:23;8.10;39.20
13198;DHT22;6664;52.514;13.440;2023-04-10T06:57:11;8.10;39.10
13198;DHT22;6664;52.514;13.440;2023-04-10T06:59:59;8.10;39.00
13198;DHT22;6664;52.514;13.440;2023-04-10T07:02:44;8.10;39.00
13198;DHT22;6664;52.514;13.440;2023-04-10T07:05:30;8.10;39.20
13198;DHT22;6664;52.514;13.440;2023-04-10T07:08:15;8.10;39.20
13198;DHT22;6664;52.514;13.440;2023-04-10T07:11:03;8.10;39.20
13198;DHT22;6664;52.514;13.440;2023-04-10T07:13:51;8.10;39.30
13198;DHT22;6664;52.514;13.440;2023-04-10T07:16:42;8.10;39.40
13198;DHT22;6664;52.514;13.440;2023-04-10T07:19:30;8.10;39.50
13198;DHT22;6664;52.514;13.440;2023-04-10T07:22:18;8.20;39.80
13198;DHT22;6664;52.514;13.440;2023-04-10T07:25:04;8.20;40.20
13198;DHT22;6664;52.514;13.440;2023-04-10T07:27:50;8.30;40.20
13198;DHT22;6664;52.514;13.440;2023-04-10T07:30:37;8.40;40.20
13198;DHT22;6664;52.514;13.440;2023-04-10T07:33:23;8.40;40.20
13198;DHT22;6664;52.514;13.440;2023-04-10T07:36:08;8.40;40.30
13198;DHT22;6664;52.514;13.440;2023-04-10T07:38:54;8.50;40.10
13198;DHT22;6664;52.514;13.440;2023-04-10T07:41:41;8.50;40.00
13198;DHT22;6664;52.514;13.440;2023-04-10T07:44:27;8.60;39.60
13198;DHT22;6664;52.514;13.440;2023-04-10T07:47:15;8.60;39.60
13198;DHT22;6664;52.514;13.440;2023-04-10T07:50:03;8.60;39.30
13198;DHT22;6664;52.514;13.440;2023-04-10T07:52:51;8.70;39.00
13198;DHT22;6664;52.514;13.440;2023-04-10T07:55:42;8.70;39.10
13198;DHT22;6664;52.514;13.440;2023-04-10T07:58:28;8.70;38.90
13198;DHT22;6664;52.514;13.440;2023-04-10T08:01:15;8.90;38.80
13198;DHT22;6664;52.514;13.440;2023-04-10T08:04:03;9.00;38.30
13198;DHT22;6664;52.514;13.440;2023-04-10T08:06:52;9.10;38.20
13198;DHT22;6664;52.514;13.440;2023-04-10T08:09:38;9.10;37.70
13198;DHT22;6664;52.514;13.440;2023-04-10T08:12:23;9.30;37.40
13198;DHT22;6664;52.514;13.440;2023-04-10T08:15:09;9.40;36.90
13198;DHT22;6664;52.514;13.440;2023-04-10T08:17:55;9.50;36.50
13198;DHT22;6664;52.514;13.440;2023-04-10T08:20:41;9.50;36.20
13198;DHT22;6664;52.514;13.440;2023-04-10T08:23:26;9.50;35.90
13198;DHT22;6664;52.514;13.440;2023-04-10T08:26:14;9.70;35.60
13198;DHT22;6664;52.514;13.440;2023-04-10T08:29:00;9.80;35.20
13198;DHT22;6664;52.514;13.440;2023-04-10T08:31:45;9.90;34.70
13198;DHT22;6664;52.514;13.440;2023-04-10T08:34:31;10.00;33.50
13198;DHT22;6664;52.514;13.440;2023-04-10T08:37:16;10.20;33.20
13198;DHT22;6664;52.514;13.440;2023-04-10T08:40:04;10.20;32.80
13198;DHT22;6664;52.514;13.440;2023-04-10T08:42:49;10.40;31.50
13198;DHT22;6664;52.514;13.440;2023-04-10T08:45:34;10.50;31.10
13198;DHT22;6664;52.514;13.440;2023-04-10T08:48:20;10.60;30.70
13198;DHT22;6664;52.514;13.440;2023-04-10T08:51:14;10.70;29.90
13198;DHT22;6664;52.514;13.440;2023-04-10T08:54:13;10.80;29.50
13198;DHT22;6664;52.514;13.440;2023-04-10T08:57:01;11.00;28.90
13198;DHT22;6664;52.514;13.440;2023-04-10T08:59:49;11.10;28.00
13198;DHT22;6664;52.514;13.440;2023-04-10T09:02:38;11.20;27.10
13198;DHT22;6664;52.514;13.440;2023-04-10T09:05:28;11.30;25.90
13198;DHT22;6664;52.514;13.440;2023-04-10T09:08:14;11.40;25.30
13198;DHT22;6664;52.514;13.440;2023-04-10T09:11:07;11.50;25.00
13198;DHT22;6664;52.514;13.440;2023-04-10T09:13:52;11.50;25.00
13198;DHT22;6664;52.514;13.440;2023-04-10T09:16:38;11.70;24.90
13198;DHT22;6664;52.514;13.440;2023-04-10T09:19:31;11.80;24.30
13198;DHT22;6664;52.514;13.440;2023-04-10T09:22:17;11.80;23.20
13198;DHT22;6664;52.514;13.440;2023-04-10T09:25:03;11.90;22.30
13198;DHT22;6664;52.514;13.440;2023-04-10T09:27:59;11.90;21.90
13198;DHT22;6664;52.514;13.440;2023-04-10T09:30:47;11.90;21.80
13198;DHT22;6664;52.514;13.440;2023-04-10T09:33:33;12.00;21.90
13198;DHT22;6664;52.514;13.440;2023-04-10T09:36:19;12.00;21.80
13198;DHT22;6664;52.514;13.440;2023-04-10T09:39:07;12.10;22.50
13198;DHT22;6664;52.514;13.440;2023-04-10T09:41:53;12.10;21.90
13198;DHT22;6664;52.514;13.440;2023-04-10T09:44:41;12.20;22.10
13198;DHT22;6664;52.514;13.440;2023-04-10T09:47:30;12.30;21.40
13198;DHT22;6664;52.514;13.440;2023-04-10T09:50:17;12.40;21.20
13198;DHT22;6664;52.514;13.440;2023-04-10T09:53:03;12.40;21.20
13198;DHT22;6664;52.514;13.440;2023-04-10T09:55:49;12.50;21.30
13198;DHT22;6664;52.514;13.440;2023-04-10T09:58:37;12.60;21.20
13198;DHT22;6664;52.514;13.440;2023-04-10T10:01:26;12.70;21.00
13198;DHT22;6664;52.514;13.440;2023-04-10T10:04:13;12.70;20.50
13198;DHT22;6664;52.514;13.440;2023-04-10T10:07:02;12.80;20.10
13198;DHT22;6664;52.514;13.440;2023-04-10T10:09:51;12.90;19.60
13198;DHT22;6664;52.514;13.440;2023-04-10T10:12:45;13.10;19.70
13198;DHT22;6664;52.514;13.440;2023-04-10T10:15:42;13.30;19.20
13198;DHT22;6664;52.514;13.440;2023-04-10T10:21:32;13.60;19.00
13198;DHT22;6664;52.514;13.440;2023-04-10T10:24:19;13.60;17.90
13198;DHT22;6664;52.514;13.440;2023-04-10T10:27:08;13.70;17.70
13198;DHT22;6664;52.514;13.440;2023-04-10T10:29:55;13.80;17.50
13198;DHT22;6664;52.514;13.440;2023-04-10T10:32:47;13.90;17.20
13198;DHT22;6664;52.514;13.440;2023-04-10T10:35:35;13.90;16.00
13198;DHT22;6664;52.514;13.440;2023-04-10T10:38:21;14.00;15.80
13198;DHT22;6664;52.514;13.440;2023-04-10T10:41:27;14.20;15.60
13198;DHT22;6664;52.514;13.440;2023-04-10T10:44:22;14.40;14.80
13198;DHT22;6664;52.514;13.440;2023-04-10T10:50:03;14.60;14.20
13198;DHT22;6664;52.514;13.440;2023-04-10T10:52:52;14.90;13.60
13198;DHT22;6664;52.514;13.440;2023-04-10T10:55:38;15.10;12.90
13198;DHT22;6664;52.514;13.440;2023-04-10T10:58:46;15.30;12.70
13198;DHT22;6664;52.514;13.440;2023-04-10T11:01:34;15.50;11.00
13198;DHT22;6664;52.514;13.440;2023-04-10T11:04:42;15.70;10.20
13198;DHT22;6664;52.514;13.440;2023-04-10T11:08:06;15.70;9.70
13198;DHT22;6664;52.514;13.440;2023-04-10T11:11:12;15.80;9.20
13198;DHT22;6664;52.514;13.440;2023-04-10T11:16:48;16.00;9.10
13198;DHT22;6664;52.514;13.440;2023-04-10T11:19:56;16.10;8.70
13198;DHT22;6664;52.514;13.440;2023-04-10T11:23:06;16.30;8.00
13198;DHT22;6664;52.514;13.440;2023-04-10T11:25:53;16.40;8.30
13198;DHT22;6664;52.514;13.440;2023-04-10T11:28:39;16.60;7.80
13198;DHT22;6664;52.514;13.440;2023-04-10T11:31:26;16.50;7.50
13198;DHT22;6664;52.514;13.440;2023-04-10T11:34:11;16.60;7.50
13198;DHT22;6664;52.514;13.440;2023-04-10T11:36:58;16.50;7.30
13198;DHT22;6664;52.514;13.440;2023-04-10T11:39:45;16.40;7.00
13198;DHT22;6664;52.514;13.440;2023-04-10T11:42:30;16.50;6.90
13198;DHT22;6664;52.514;13.440;2023-04-10T11:45:26;16.60;6.50
13198;DHT22;6664;52.514;13.440;2023-04-10T11:48:14;16.70;5.70
13198;DHT22;6664;52.514;13.440;2023-04-10T11:51:12;16.90;5.60
13198;DHT22;6664;52.514;13.440;2023-04-10T11:54:10;16.90;5.00
13198;DHT22;6664;52.514;13.440;2023-04-10T11:57:05;17.10;4.20
13198;DHT22;6664;52.514;13.440;2023-04-10T11:59:53;17.00;3.90
13198;DHT22;6664;52.514;13.440;2023-04-10T12:02:50;17.40;3.80
13198;DHT22;6664;52.514;13.440;2023-04-10T12:05:46;17.50;3.10
13198;DHT22;6664;52.514;13.440;2023-04-10T12:08:34;17.40;2.60
13198;DHT22;6664;52.514;13.440;2023-04-10T12:11:21;17.60;2.70
13198;DHT22;6664;52.514;13.440;2023-04-10T12:14:07;17.70;2.00
13198;DHT22;6664;52.514;13.440;2023-04-10T12:16:52;17.60;1.40
13198;DHT22;6664;52.514;13.440;2023-04-10T12:19:39;17.50;1.50
13198;DHT22;6664;52.514;13.440;2023-04-10T12:22:27;17.70;1.20
13198;DHT22;6664;52.514;13.440;2023-04-10T12:25:13;17.70;1.10
13198;DHT22;6664;52.514;13.440;2023-04-10T12:28:00;17.70;1.20
13198;DHT22;6664;52.514;13.440;2023-04-10T12:30:50;18.00;1.00
13198;DHT22;6664;52.514;13.440;2023-04-10T12:33:44;18.60;1.00
13198;DHT22;6664;52.514;13.440;2023-04-10T12:36:31;19.20;1.00
13198;DHT22;6664;52.514;13.440;2023-04-10T12:39:23;19.80;1.00
13198;DHT22;6664;52.514;13.440;2023-04-10T12:42:19;20.50;1.00
13198;DHT22;6664;52.514;13.440;2023-04-10T12:45:07;25.80;1.00
13198;DHT22;6664;52.514;13.440;2023-04-10T12:47:56;29.00;1.00
13198;DHT22;6664;52.514;13.440;2023-04-10T12:50:45;29.00;1.00
13198;DHT22;6664;52.514;13.440;2023-04-10T12:53:42;31.00;1.00
13198;DHT22;6664;52.514;13.440;2023-04-10T12:56:42;32.50;1.00
13198;DHT22;6664;52.514;13.440;2023-04-10T12:59:32;35.20;1.00
13198;DHT22;6664;52.514;13.440;2023-04-10T13:02:18;36.60;1.00
13198;DHT22;6664;52.514;13.440;2023-04-10T13:05:11;36.50;1.00
13198;DHT22;6664;52.514;13.440;2023-04-10T13:07:57;38.70;1.00
13198;DHT22;6664;52.514;13.440;2023-04-10T13:10:42;39.90;1.00
13198;DHT22;6664;52.514;13.440;2023-04-10T13:13:28;38.50;1.00
13198;DHT22;6664;52.514;13.440;2023-04-10T13:16:17;39.50;1.00
13198;DHT22;6664;52.514;13.440;2023-04-10T13:19:05;39.00;1.00
13198;DHT22;6664;52.514;13.440;2023-04-10T13:21:50;40.20;1.00
13198;DHT22;6664;52.514;13.440;2023-04-10T13:24:37;41.50;1.00
13198;DHT22;6664;52.514;13.440;2023-04-10T13:27:22;42.90;1.00
13198;DHT22;6664;52.514;13.440;2023-04-10T13:30:08;38.50;1.00
13198;DHT22;6664;52.514;13.440;2023-04-10T13:32:54;32.40;1.00
13198;DHT22;6664;52.514;13.440;2023-04-10T13:35:41;36.10;1.00
13198;DHT22;6664;52.514;13.440;2023-04-10T13:38:29;36.80;1.00
13198;DHT22;6664;52.514;13.440;2023-04-10T13:41:15;39.10;1.00
13198;DHT22;6664;52.514;13.440;2023-04-10T13:44:03;38.20;1.00
13198;DHT22;6664;52.514;13.440;2023-04-10T13:46:51;37.70;1.00
13198;DHT22;6664;52.514;13.440;2023-04-10T13:49:37;38.90;1.00
13198;DHT22;6664;52.514;13.440;2023-04-10T13:52:22;32.40;1.00
13198;DHT22;6664;52.514;13.440;2023-04-10T13:55:08;30.10;1.00
13198;DHT22;6664;52.514;13.440;2023-04-10T13:57:57;28.50;1.00
13198;DHT22;6664;52.514;13.440;2023-04-10T14:00:42;35.10;1.00
13198;DHT22;6664;52.514;13.440;2023-04-10T14:03:28;38.10;1.00
13198;DHT22;6664;52.514;13.440;2023-04-10T14:06:14;40.00;1.00
13198;DHT22;6664;52.514;13.440;2023-04-10T14:09:00;35.20;1.00
13198;DHT22;6664;52.514;13.440;2023-04-10T14:11:48;31.70;1.00
13198;DHT22;6664;52.514;13.440;2023-04-10T14:14:33;27.90;1.00
13198;DHT22;6664;52.514;13.440;2023-04-10T14:17:20;33.50;1.00
13198;DHT22;6664;52.514;13.440;2023-04-10T14:20:07;33.40;1.00
13198;DHT22;6664;52.514;13.440;2023-04-10T14:22:55;36.20;1.00
13198;DHT22;6664;52.514;13.440;2023-04-10T14:25:40;37.90;1.00
13198;DHT22;6664;52.514;13.440;2023-04-10T14:28:26;39.90;1.00
13198;DHT22;6664;52.514;13.440;2023-04-10T14:31:13;41.10;1.00
13198;DHT22;6664;52.514;13.440;2023-04-10T14:33:59;40.70;1.00
13198;DHT22;6664;52.514;13.440;2023-04-10T14:36:45;38.30;1.00
13198;DHT22;6664;52.514;13.440;2023-04-10T14:39:30;35.80;1.00
13198;DHT22;6664;52.514;13.440;2023-04-10T14:42:17;32.00;1.00
13198;DHT22;6664;52.514;13.440;2023-04-10T14:45:02;28.40;1.00
13198;DHT22;6664;52.514;13.440;2023-04-10T14:47:49;28.60;1.00
13198;DHT22;6664;52.514;13.440;2023-04-10T14:50:35;29.10;1.00
13198;DHT22;6664;52.514;13.440;2023-04-10T14:53:21;28.20;1.00
13198;DHT22;6664;52.514;13.440;2023-04-10T14:56:11;29.10;1.00
13198;DHT22;6664;52.514;13.440;2023-04-10T14:59:00;30.00;1.00
13198;DHT22;6664;52.514;13.440;2023-04-10T15:01:45;27.80;1.00
13198;DHT22;6664;52.514;13.440;2023-04-10T15:04:31;28.00;1.00
13198;DHT22;6664;52.514;13.440;2023-04-10T15:07:17;27.70;1.00
13198;DHT22;6664;52.514;13.440;2023-04-10T15:10:03;27.70;1.00
13198;DHT22;6664;52.514;13.440;2023-04-10T15:12:48;26.70;1.00
13198;DHT22;6664;52.514;13.440;2023-04-10T15:15:37;28.20;1.00
13198;DHT22;6664;52.514;13.440;2023-04-10T15:18:23;28.10;1.00
13198;DHT22;6664;52.514;13.440;2023-04-10T15:21:09;27.00;1.00
13198;DHT22;6664;52.514;13.440;2023-04-10T15:23:55;26.60;1.00
13198;DHT22;6664;52.514;13.440;2023-04-10T15:26:45;25.90;1.00
13198;DHT22;6664;52.514;13.440;2023-04-10T15:29:37;25.20;1.00
13198;DHT22;6664;52.514;13.440;2023-04-10T15:32:22;24.80;1.00
13198;DHT22;6664;52.514;13.440;2023-04-10T15:35:08;24.70;1.00
13198;DHT22;6664;52.514;13.440;2023-04-10T15:37:54;23.90;1.00
13198;DHT22;6664;52.514;13.440;2023-04-10T15:40:39;23.30;1.00
13198;DHT22;6664;52.514;13.440;2023-04-10T15:43:25;22.20;1.00
13198;DHT22;6664;52.514;13.440;2023-04-10T15:46:13;22.00;1.00
13198;DHT22;6664;52.514;13.440;2023-04-10T15:49:01;21.00;1.00
13198;DHT22;6664;52.514;13.440;2023-04-10T15:51:46;21.90;1.00
13198;DHT22;6664;52.514;13.440;2023-04-10T15:54:37;21.90;1.00
13198;DHT22;6664;52.514;13.440;2023-04-10T15:57:23;22.50;1.00
13198;DHT22;6664;52.514;13.440;2023-04-10T16:00:08;22.00;1.00
13198;DHT22;6664;52.514;13.440;2023-04-10T16:02:57;22.70;1.00
13198;DHT22;6664;52.514;13.440;2023-04-10T16:05:44;22.40;1.00
13198;DHT22;6664;52.514;13.440;2023-04-10T16:08:30;22.40;1.00
13198;DHT22;6664;52.514;13.440;2023-04-10T16:11:16;21.60;1.00
13198;DHT22;6664;52.514;13.440;2023-04-10T16:14:01;22.30;1.00
13198;DHT22;6664;52.514;13.440;2023-04-10T16:16:47;22.10;1.00
13198;DHT22;6664;52.514;13.440;2023-04-10T16:19:33;22.10;1.00
13198;DHT22;6664;52.514;13.440;2023-04-10T16:22:18;21.40;1.00
13198;DHT22;6664;52.514;13.440;2023-04-10T16:25:04;21.10;1.00
13198;DHT22;6664;52.514;13.440;2023-04-10T16:27:50;20.90;1.00
13198;DHT22;6664;52.514;13.440;2023-04-10T16:30:36;20.90;1.00
13198;DHT22;6664;52.514;13.440;2023-04-10T16:33:23;21.50;1.00
13198;DHT22;6664;52.514;13.440;2023-04-10T16:36:09;21.10;1.00
13198;DHT22;6664;52.514;13.440;2023-04-10T16:38:57;21.10;1.00
13198;DHT22;6664;52.514;13.440;2023-04-10T16:41:43;20.50;1.00
13198;DHT22;6664;52.514;13.440;2023-04-10T16:44:31;20.20;1.00
13198;DHT22;6664;52.514;13.440;2023-04-10T16:47:17;19.40;1.00
13198;DHT22;6664;52.514;13.440;2023-04-10T16:50:03;19.60;1.00
13198;DHT22;6664;52.514;13.440;2023-04-10T16:52:48;19.40;1.00
13198;DHT22;6664;52.514;13.440;2023-04-10T16:55:34;19.60;1.00
13198;DHT22;6664;52.514;13.440;2023-04-10T16:58:19;19.60;1.00
13198;DHT22;6664;52.514;13.440;2023-04-10T17:01:15;19.40;1.00
13198;DHT22;6664;52.514;13.440;2023-04-10T17:04:01;19.00;1.00
13198;DHT22;6664;52.514;13.440;2023-04-10T17:06:47;18.60;1.00
13198;DHT22;6664;52.514;13.440;2023-04-10T17:09:33;18.00;1.00
13198;DHT22;6664;52.514;13.440;2023-04-10T17:12:20;17.30;1.00
13198;DHT22;6664;52.514;13.440;2023-04-10T17:15:06;17.00;1.00
13198;DHT22;6664;52.514;13.440;2023-04-10T17:17:52;16.60;1.00
13198;DHT22;6664;52.514;13.440;2023-04-10T17:20:38;16.30;1.00
13198;DHT22;6664;52.514;13.440;2023-04-10T17:23:26;16.00;1.00
13198;DHT22;6664;52.514;13.440;2023-04-10T17:26:15;15.80;1.00
13198;DHT22;6664;52.514;13.440;2023-04-10T17:29:01;15.70;1.00
13198;DHT22;6664;52.514;13.440;2023-04-10T17:31:46;15.50;1.00
13198;DHT22;6664;52.514;13.440;2023-04-10T17:34:32;15.30;1.00
13198;DHT22;6664;52.514;13.440;2023-04-10T17:37:18;15.10;1.00
13198;DHT22;6664;52.514;13.440;2023-04-10T17:40:05;14.90;1.00
13198;DHT22;6664;52.514;13.440;2023-04-10T17:42:51;14.70;1.00
13198;DHT22;6664;52.514;13.440;2023-04-10T17:45:40;14.50;1.00
13198;DHT22;6664;52.514;13.440;2023-04-10T17:48:30;14.30;1.00
13198;DHT22;6664;52.514;13.440;2023-04-10T17:51:16;14.10;1.00
13198;DHT22;6664;52.514;13.440;2023-04-10T17:54:02;14.10;1.00
13198;DHT22;6664;52.514;13.440;2023-04-10T17:56:52;13.90;1.00
13198;DHT22;6664;52.514;13.440;2023-04-10T17:59:37;13.80;1.00
13198;DHT22;6664;52.514;13.440;2023-04-10T18:02:25;13.80;1.00
13198;DHT22;6664;52.514;13.440;2023-04-10T18:05:11;13.80;1.00
13198;DHT22;6664;52.514;13.440;2023-04-10T18:07:59;13.60;1.00
13198;DHT22;6664;52.514;13.440;2023-04-10T18:10:44;13.60;1.00
13198;DHT22;6664;52.514;13.440;2023-04-10T18:13:32;13.60;1.00